Time;durP1;ratioP1;P1;durP2;ratioP2;P2;SDS_P1;SDS_P2;PMS_P1;PMS_P2;Temp;Humidity;BMP_temperature;BMP_pressure;BME280_temperature;BME280_humidity;BME280_pressure;Samples;Min_cycle;Max_cycle;Signal;HPM_P1;HPM_P2
2021/06/08 00:01:36;;;;;;;1999.90;999.90;;;15.70;99.90;;;;;;4974318;28;20177;-83
2021/06/08 00:04:02;;;;;;;1999.90;999.90;;;15.80;99.90;;;;;;4974267;28;20666;-83
2021/06/08 00:06:28;;;;;;;1999.90;999.90;;;15.80;99.90;;;;;;4977178;28;20260;-83
2021/06/08 00:08:54;;;;;;;1999.90;999.90;;;15.80;99.90;;;;;;4976025;28;20180;-83
2021/06/08 00:11:21;;;;;;;1999.90;999.90;;;15.90;99.90;;;;;;4976092;28;20180;-83
2021/06/08 00:13:50;;;;;;;1999.90;999.90;;;15.90;99.90;;;;;;4976342;28;20192;-83
2021/06/08 00:16:16;;;;;;;1999.90;999.90;;;15.90;99.90;;;;;;4974826;28;20713;-83
2021/06/08 00:18:42;;;;;;;1999.90;999.90;;;15.90;99.90;;;;;;4973587;28;20173;-83
2021/06/08 00:21:08;;;;;;;1999.90;999.90;;;15.80;99.90;;;;;;4974317;28;20172;-83
2021/06/08 00:23:34;;;;;;;1999.90;999.90;;;15.70;99.90;;;;;;4974476;28;20263;-83
2021/06/08 00:25:59;;;;;;;1999.90;999.90;;;15.70;99.90;;;;;;4973837;28;20200;-83
2021/06/08 00:28:25;;;;;;;1999.90;999.90;;;15.60;99.90;;;;;;4975169;28;20259;-83
2021/06/08 00:30:51;;;;;;;1999.90;999.90;;;15.50;99.90;;;;;;4974212;28;20192;-83
2021/06/08 00:33:17;;;;;;;1999.90;999.90;;;15.40;99.90;;;;;;4975166;28;20577;-83
2021/06/08 00:35:42;;;;;;;1999.90;999.90;;;15.50;99.90;;;;;;4975048;28;20169;-83
2021/06/08 00:38:08;;;;;;;1999.90;999.90;;;15.50;99.90;;;;;;4979738;28;20173;-83
2021/06/08 00:40:34;;;;;;;1999.90;999.90;;;15.50;99.90;;;;;;4980277;28;20169;-83
2021/06/08 00:43:00;;;;;;;1999.90;999.90;;;15.50;99.90;;;;;;4979109;28;20200;-84
2021/06/08 00:45:26;;;;;;;1999.90;999.90;;;15.50;99.90;;;;;;4980262;28;20237;-82
2021/06/08 00:47:51;;;;;;;1999.90;999.90;;;15.40;99.90;;;;;;4979702;28;20186;-83
2021/06/08 00:50:18;;;;;;;1999.90;999.90;;;15.30;99.90;;;;;;4978405;28;20177;-83
2021/06/08 00:52:44;;;;;;;1999.90;999.90;;;15.40;99.90;;;;;;4977469;28;20667;-83
2021/06/08 00:55:11;;;;;;;1999.90;999.90;;;15.50;99.90;;;;;;4977242;28;20218;-83
2021/06/08 00:57:38;;;;;;;1999.90;999.90;;;15.50;99.90;;;;;;4978771;28;20255;-83
2021/06/08 01:00:08;;;;;;;1999.90;999.90;;;15.60;99.90;;;;;;4978122;28;20180;-83
2021/06/08 01:02:34;;;;;;;1999.90;999.90;;;15.50;99.90;;;;;;4977090;28;20180;-83
2021/06/08 01:05:05;;;;;;;1999.90;999.90;;;15.60;99.90;;;;;;4977236;28;20639;-83
2021/06/08 01:07:34;;;;;;;1999.90;999.90;;;15.60;99.90;;;;;;4976973;28;20684;-83
2021/06/08 01:10:00;;;;;;;1999.90;999.90;;;15.60;99.90;;;;;;4975699;28;20209;-83
2021/06/08 01:12:26;;;;;;;1999.90;999.90;;;15.70;99.90;;;;;;4972357;28;20277;-83
2021/06/08 01:14:53;;;;;;;1999.90;999.90;;;15.70;99.90;;;;;;4973569;28;20232;-82
2021/06/08 01:17:19;;;;;;;1999.90;999.90;;;15.70;99.90;;;;;;4960610;28;20193;-83
2021/06/08 01:19:47;;;;;;;1999.90;999.90;;;15.70;99.90;;;;;;4962898;28;20718;-83
2021/06/08 01:22:14;;;;;;;1999.90;999.90;;;15.60;99.90;;;;;;4978447;28;20235;-83
2021/06/08 01:24:40;;;;;;;1999.90;999.90;;;15.60;99.90;;;;;;4978605;28;20181;-82
2021/06/08 01:27:07;;;;;;;1999.90;999.90;;;15.60;99.90;;;;;;4978680;28;20192;-83
2021/06/08 01:29:35;;;;;;;1999.90;999.90;;;15.60;99.90;;;;;;4978951;28;20168;-82
2021/06/08 01:32:05;;;;;;;1999.90;999.90;;;15.60;99.90;;;;;;4977008;28;20179;-82
2021/06/08 01:34:33;;;;;;;1999.90;999.90;;;15.60;99.90;;;;;;4977672;28;20183;-83
2021/06/08 01:36:59;;;;;;;1999.90;999.90;;;15.60;99.90;;;;;;4976379;28;20189;-82
2021/06/08 01:39:26;;;;;;;1999.90;999.90;;;15.50;99.90;;;;;;4978642;28;20182;-82
2021/06/08 01:41:52;;;;;;;1999.90;999.90;;;15.30;99.90;;;;;;4978188;28;20199;-83
2021/06/08 01:44:18;;;;;;;1999.90;999.90;;;15.40;99.90;;;;;;4978536;28;20180;-83
2021/06/08 01:46:44;;;;;;;1999.90;999.90;;;15.40;99.90;;;;;;4978212;28;20221;-83
2021/06/08 01:49:09;;;;;;;1999.90;999.90;;;15.40;99.90;;;;;;4977531;28;20184;-83
2021/06/08 01:51:44;;;;;;;1999.90;999.90;;;15.40;99.90;;;;;;4977297;28;20257;-82
2021/06/08 01:54:34;;;;;;;1999.90;999.90;;;15.50;99.90;;;;;;4981630;28;20426;-82
2021/06/08 01:57:39;;;;;;;1999.90;999.90;;;15.40;99.90;;;;;;4966990;28;20201;-83
2021/06/08 02:00:12;;;;;;;1999.90;999.90;;;15.40;99.90;;;;;;4975504;28;20184;-82
2021/06/08 02:02:56;;;;;;;1999.90;999.90;;;15.40;99.90;;;;;;4978992;28;20242;-83
2021/06/08 02:05:44;;;;;;;1999.90;999.90;;;15.40;99.90;;;;;;4977696;28;20577;-83
2021/06/08 02:08:18;;;;;;;1999.90;999.90;;;15.40;99.90;;;;;;4980562;28;20172;-82
2021/06/08 02:10:52;;;;;;;1999.90;999.90;;;15.40;99.90;;;;;;4978931;28;20259;-83
2021/06/08 02:13:27;;;;;;;1999.90;999.90;;;15.40;99.90;;;;;;4978356;28;20222;-83
2021/06/08 02:16:06;;;;;;;1999.90;999.90;;;15.40;99.90;;;;;;4978780;28;20207;-83
2021/06/08 02:18:35;;;;;;;1999.90;999.90;;;15.40;99.90;;;;;;4978757;28;20164;-83
2021/06/08 02:21:02;;;;;;;1999.90;999.90;;;15.40;99.90;;;;;;4979253;28;20640;-81
2021/06/08 02:23:30;;;;;;;1999.90;999.90;;;15.40;99.90;;;;;;4978341;28;20185;-83
2021/06/08 02:25:57;;;;;;;1999.90;999.90;;;15.40;99.90;;;;;;4977060;28;20230;-84
2021/06/08 02:28:29;;;;;;;1999.90;999.90;;;15.50;99.90;;;;;;4978835;28;20242;-83
2021/06/08 02:30:56;;;;;;;1999.90;999.90;;;15.50;99.90;;;;;;4977257;28;20184;-83
2021/06/08 02:33:24;;;;;;;1999.90;999.90;;;15.40;99.90;;;;;;4978530;28;20220;-80
2021/06/08 02:35:51;;;;;;;1999.90;999.90;;;15.40;99.90;;;;;;4976651;28;20192;-82
2021/06/08 02:38:18;;;;;;;1999.90;999.90;;;15.40;99.90;;;;;;4980036;28;20176;-82
2021/06/08 02:40:45;;;;;;;1999.90;999.90;;;15.40;99.90;;;;;;4980869;28;20252;-83
2021/06/08 02:43:11;;;;;;;1999.90;999.90;;;15.40;99.90;;;;;;4977159;28;20721;-83
2021/06/08 02:45:40;;;;;;;1999.90;999.90;;;15.40;99.90;;;;;;4977773;28;20172;-82
2021/06/08 02:48:06;;;;;;;1999.90;999.90;;;15.40;99.90;;;;;;4960030;28;20660;-82
2021/06/08 02:50:32;;;;;;;1999.90;999.90;;;15.40;99.90;;;;;;4977766;28;20188;-82
2021/06/08 02:52:59;;;;;;;1999.90;999.90;;;15.40;99.90;;;;;;4977536;28;20242;-82
2021/06/08 02:55:26;;;;;;;1999.90;999.90;;;15.40;99.90;;;;;;4976686;28;20351;-82
2021/06/08 02:57:55;;;;;;;1999.90;999.90;;;15.40;99.90;;;;;;4976773;28;20532;-83
2021/06/08 03:00:21;;;;;;;1999.90;999.90;;;15.40;99.90;;;;;;4974959;28;20274;-82
2021/06/08 03:02:50;;;;;;;1999.90;999.90;;;15.30;99.90;;;;;;4976663;28;20180;-82
2021/06/08 03:05:28;;;;;;;1999.90;999.90;;;15.30;99.90;;;;;;4976528;28;20245;-82
2021/06/08 03:07:59;;;;;;;1999.90;999.90;;;15.30;99.90;;;;;;4975591;28;20188;-82
2021/06/08 03:10:27;;;;;;;1999.90;999.90;;;15.30;99.90;;;;;;4976120;28;20188;-82
2021/06/08 03:12:57;;;;;;;1999.90;999.90;;;15.30;99.90;;;;;;4976559;28;20197;-83
2021/06/08 03:15:27;;;;;;;1999.90;999.90;;;15.30;99.90;;;;;;4976276;28;20207;-82
2021/06/08 03:17:52;;;;;;;1999.90;999.90;;;15.30;99.90;;;;;;4976859;28;20232;-82
2021/06/08 03:20:25;;;;;;;1999.90;999.90;;;15.30;99.90;;;;;;4959603;28;20211;-83
2021/06/08 03:22:54;;;;;;;1999.90;999.90;;;15.30;99.90;;;;;;4977158;28;20191;-83
2021/06/08 03:25:22;;;;;;;1999.90;999.90;;;15.30;99.90;;;;;;4977061;28;20180;-83
2021/06/08 03:27:50;;;;;;;1999.90;999.90;;;15.30;99.90;;;;;;4967435;28;20196;-83
2021/06/08 03:30:17;;;;;;;1999.90;999.90;;;15.20;99.90;;;;;;4977335;28;20252;-83
2021/06/08 03:32:44;;;;;;;1999.90;999.90;;;15.20;99.90;;;;;;4974839;28;20231;-83
2021/06/08 03:35:10;;;;;;;1999.90;999.90;;;15.20;99.90;;;;;;4976521;28;20180;-83
2021/06/08 03:37:37;;;;;;;1999.90;999.90;;;15.30;99.90;;;;;;4975295;28;20196;-83
2021/06/08 03:40:05;;;;;;;1999.90;999.90;;;15.30;99.90;;;;;;4977007;28;20251;-83
2021/06/08 03:42:31;;;;;;;1999.90;999.90;;;15.30;99.90;;;;;;4974597;28;20172;-84
2021/06/08 03:44:57;;;;;;;1999.90;999.90;;;15.30;99.90;;;;;;4976835;28;20203;-83
2021/06/08 03:47:22;;;;;;;1999.90;999.90;;;15.40;99.90;;;;;;4974417;28;20239;-82
2021/06/08 03:49:48;;;;;;;1999.90;999.90;;;15.40;99.90;;;;;;4976680;28;20236;-83
2021/06/08 03:52:14;;;;;;;1999.90;999.90;;;15.40;99.90;;;;;;4973817;28;20189;-82
2021/06/08 03:54:40;;;;;;;1999.90;999.90;;;15.50;99.90;;;;;;4976637;28;20165;-82
2021/06/08 03:57:07;;;;;;;1999.90;999.90;;;15.50;99.90;;;;;;4971296;28;20204;-83
2021/06/08 03:59:37;;;;;;;1999.90;999.90;;;15.50;99.90;;;;;;4978637;28;20177;-82
2021/06/08 04:02:04;;;;;;;1999.90;999.90;;;15.50;99.90;;;;;;4979089;28;20203;-82
2021/06/08 04:04:31;;;;;;;1999.90;999.90;;;15.50;99.90;;;;;;4978428;28;20259;-82
2021/06/08 04:06:57;;;;;;;1999.90;999.90;;;15.50;99.90;;;;;;4978631;28;20208;-82
2021/06/08 04:09:23;;;;;;;1999.90;999.90;;;15.60;99.90;;;;;;4978397;28;20184;-83
2021/06/08 04:11:51;;;;;;;1999.90;999.90;;;15.60;99.90;;;;;;4977081;28;20182;-83
2021/06/08 04:14:18;;;;;;;1999.90;999.90;;;15.60;99.90;;;;;;4974894;28;20354;-83
2021/06/08 04:16:45;;;;;;;1999.90;999.90;;;15.60;99.90;;;;;;4970373;28;20198;-83
2021/06/08 04:19:13;;;;;;;1999.90;999.90;;;15.60;99.90;;;;;;4982325;28;20184;-83
2021/06/08 04:21:41;;;;;;;1999.90;999.90;;;15.60;99.90;;;;;;4985399;28;20177;-82
2021/06/08 04:24:07;;;;;;;1999.90;999.90;;;15.50;99.90;;;;;;4983937;28;20663;-83
2021/06/08 04:26:33;;;;;;;1999.90;999.90;;;15.60;99.90;;;;;;4982730;28;20196;-83
2021/06/08 04:28:59;;;;;;;1999.90;999.90;;;15.60;99.90;;;;;;4983363;28;20182;-82
2021/06/08 04:31:26;;;;;;;1999.90;999.90;;;15.60;99.90;;;;;;4981222;28;20191;-83
2021/06/08 04:33:52;;;;;;;1999.90;999.90;;;15.60;99.90;;;;;;4981022;28;21385;-83
2021/06/08 04:36:19;;;;;;;1999.90;999.90;;;15.60;99.90;;;;;;4965726;28;20201;-82
2021/06/08 04:38:45;;;;;;;1999.90;999.90;;;15.60;99.90;;;;;;4982645;28;20199;-83
2021/06/08 04:41:12;;;;;;;1999.90;999.90;;;15.60;99.90;;;;;;4983741;28;20178;-83
2021/06/08 04:43:40;;;;;;;1999.90;999.90;;;15.60;99.90;;;;;;5000406;28;20199;-83
2021/06/08 04:46:08;;;;;;;1999.90;999.90;;;15.50;99.90;;;;;;5019596;28;20224;-83
2021/06/08 04:48:34;;;;;;;1999.90;999.90;;;15.60;99.90;;;;;;4980974;28;20188;-83
2021/06/08 04:51:00;;;;;;;1999.90;999.90;;;15.50;99.90;;;;;;4982062;28;20275;-82
2021/06/08 04:53:26;;;;;;;1999.90;999.90;;;15.50;99.90;;;;;;4982086;28;20663;-82
2021/06/08 04:55:53;;;;;;;1999.90;999.90;;;15.40;99.90;;;;;;4978113;28;20211;-83
2021/06/08 04:58:19;;;;;;;1999.90;999.90;;;15.40;99.90;;;;;;4980356;28;20806;-83
2021/06/08 05:00:56;;;;;;;1999.90;999.90;;;15.50;99.90;;;;;;4979755;28;20265;-83
2021/06/08 05:03:30;;;;;;;1999.90;999.90;;;15.60;99.90;;;;;;4981446;28;20555;-82
2021/06/08 05:05:59;;;;;;;1999.90;999.90;;;15.60;99.90;;;;;;4981318;28;20219;-82
2021/06/08 05:08:56;;;;;;;1999.90;999.90;;;15.60;99.90;;;;;;4981155;28;20187;-81
2021/06/08 05:11:38;;;;;;;1999.90;999.90;;;15.70;99.90;;;;;;4981833;28;20292;-81
2021/06/08 05:14:07;;;;;;;1999.90;999.90;;;15.70;99.90;;;;;;4982638;28;20564;-82
2021/06/08 05:16:33;;;;;;;1999.90;999.90;;;15.70;99.90;;;;;;4982989;28;20327;-81
2021/06/08 05:19:01;;;;;;;1999.90;999.90;;;15.70;99.90;;;;;;4981318;28;20173;-81
2021/06/08 05:21:28;;;;;;;1999.90;999.90;;;15.70;99.90;;;;;;4973468;28;20181;-81
2021/06/08 05:23:54;;;;;;;1999.90;999.90;;;15.80;99.90;;;;;;4975047;28;20267;-82
2021/06/08 05:26:21;;;;;;;1999.90;999.90;;;15.80;99.90;;;;;;4965413;28;20196;-82
2021/06/08 05:28:47;;;;;;;1999.90;999.90;;;15.80;99.90;;;;;;4981771;28;20187;-81
2021/06/08 05:31:18;;;;;;;1999.90;999.90;;;15.80;99.90;;;;;;4981902;28;20176;-82
2021/06/08 05:33:44;;;;;;;1999.90;999.90;;;15.80;99.90;;;;;;4982907;28;20198;-81
2021/06/08 05:36:10;;;;;;;1999.90;999.90;;;15.80;99.90;;;;;;4981932;28;20197;-82
2021/06/08 05:38:40;;;;;;;1999.90;999.90;;;15.80;99.90;;;;;;4974305;28;20192;-81
2021/06/08 05:41:08;;;;;;;1999.90;999.90;;;15.80;99.90;;;;;;4976775;28;20227;-82
2021/06/08 05:43:34;;;;;;;1999.90;999.90;;;15.80;99.90;;;;;;4982728;28;20183;-81
2021/06/08 05:46:01;;;;;;;1999.90;999.90;;;15.90;99.90;;;;;;4980214;28;20294;-83
2021/06/08 05:48:27;;;;;;;1999.90;999.90;;;15.80;99.90;;;;;;4981783;28;20230;-81
2021/06/08 05:50:58;;;;;;;1999.90;999.90;;;15.90;99.90;;;;;;4981241;28;20252;-81
2021/06/08 05:53:24;;;;;;;1999.90;999.90;;;15.90;99.90;;;;;;4980455;28;20204;-82
2021/06/08 05:55:51;;;;;;;1999.90;999.90;;;15.90;99.90;;;;;;4982889;28;20208;-82
2021/06/08 05:58:26;;;;;;;1999.90;999.90;;;15.90;99.90;;;;;;4982840;28;20164;-81
2021/06/08 06:00:52;;;;;;;1999.90;999.90;;;15.90;99.90;;;;;;4981589;28;20249;-81
2021/06/08 06:03:19;;;;;;;1999.90;999.90;;;15.90;99.90;;;;;;4981697;28;20205;-81
2021/06/08 06:05:46;;;;;;;1999.90;999.90;;;15.90;99.90;;;;;;4981276;28;20196;-82
2021/06/08 06:08:12;;;;;;;1999.90;999.90;;;16.00;99.90;;;;;;4981069;28;20180;-82
2021/06/08 06:10:38;;;;;;;1999.90;999.90;;;16.00;99.90;;;;;;4981023;28;20272;-82
2021/06/08 06:13:05;;;;;;;1999.90;999.90;;;16.00;99.90;;;;;;4981608;28;20686;-82
2021/06/08 06:15:32;;;;;;;1999.90;999.90;;;16.00;99.90;;;;;;4981741;28;20197;-83
2021/06/08 06:17:59;;;;;;;1999.90;999.90;;;16.10;99.90;;;;;;4981284;28;20176;-82
2021/06/08 06:20:25;;;;;;;1999.90;999.90;;;16.10;99.90;;;;;;4982181;28;20201;-82
2021/06/08 06:22:51;;;;;;;1999.90;999.90;;;16.10;99.90;;;;;;4981271;28;20184;-82
2021/06/08 06:25:18;;;;;;;1999.90;999.90;;;16.10;99.90;;;;;;4980322;28;20559;-82
2021/06/08 06:27:44;;;;;;;1999.90;999.90;;;16.10;99.90;;;;;;4980138;28;20202;-82
2021/06/08 06:30:13;;;;;;;1999.90;999.90;;;16.10;99.90;;;;;;4981819;28;20640;-82
2021/06/08 06:32:39;;;;;;;1999.90;999.90;;;16.10;99.90;;;;;;4981195;28;20208;-82
2021/06/08 06:35:07;;;;;;;1999.90;999.90;;;16.10;99.90;;;;;;4979557;28;20208;-82
2021/06/08 06:37:33;;;;;;;1999.90;999.90;;;16.10;99.90;;;;;;4975584;28;20210;-84
2021/06/08 06:40:02;;;;;;;1999.90;999.90;;;16.10;99.90;;;;;;4977663;28;20172;-82
2021/06/08 06:42:38;;;;;;;1999.90;999.90;;;16.10;99.90;;;;;;4980904;28;20185;-81
2021/06/08 06:45:08;;;;;;;1999.90;999.90;;;16.10;99.90;;;;;;4968165;28;20245;-82
2021/06/08 06:47:35;;;;;;;1999.90;999.90;;;16.10;99.90;;;;;;4980015;28;20212;-82
2021/06/08 06:50:01;;;;;;;1999.90;999.90;;;16.20;99.90;;;;;;4979937;28;20173;-82
2021/06/08 06:52:26;;;;;;;1999.90;999.90;;;16.20;99.90;;;;;;4980857;28;20264;-81
2021/06/08 06:54:52;;;;;;;1999.90;999.90;;;16.20;99.90;;;;;;4979501;28;20225;-82
2021/06/08 06:57:18;;;;;;;1999.90;999.90;;;16.20;99.90;;;;;;4976825;28;20224;-81
2021/06/08 06:59:44;;;;;;;1999.90;999.90;;;16.20;99.90;;;;;;4980932;28;20298;-82
2021/06/08 07:02:15;;;;;;;1999.90;999.90;;;16.20;99.90;;;;;;4979722;28;20235;-81
2021/06/08 07:04:43;;;;;;;1999.90;999.90;;;16.30;99.90;;;;;;4980169;28;20545;-82
2021/06/08 07:07:10;;;;;;;1999.90;999.90;;;16.30;99.90;;;;;;4979346;28;20295;-81
2021/06/08 07:09:36;;;;;;;1999.90;999.90;;;16.30;99.90;;;;;;4967528;28;20661;-81
2021/06/08 07:12:02;;;;;;;1999.90;999.90;;;16.40;99.90;;;;;;4978551;28;20185;-82
2021/06/08 07:14:30;;;;;;;1999.90;999.90;;;16.40;99.90;;;;;;4979803;28;20200;-81
2021/06/08 07:16:56;;;;;;;1999.90;999.90;;;16.30;99.90;;;;;;4982867;28;20200;-81
2021/06/08 07:19:24;;;;;;;1999.90;999.90;;;16.40;99.90;;;;;;4980633;28;20176;-82
2021/06/08 07:21:51;;;;;;;1999.90;999.90;;;16.30;99.90;;;;;;4980461;28;20738;-82
2021/06/08 07:24:17;;;;;;;1999.90;999.90;;;16.40;99.90;;;;;;4979489;28;20188;-82
2021/06/08 07:26:43;;;;;;;1999.90;999.90;;;16.50;99.90;;;;;;4989611;28;20686;-82
2021/06/08 07:29:13;;;;;;;1999.90;999.90;;;16.50;99.90;;;;;;4979762;28;20180;-83
2021/06/08 07:32:03;;;;;;;1999.90;999.90;;;16.50;99.90;;;;;;4980005;28;20184;-82
2021/06/08 07:34:44;;;;;;;1999.90;999.90;;;16.60;99.90;;;;;;4978941;28;20196;-82
2021/06/08 07:37:18;;;;;;;1999.90;999.90;;;16.70;99.90;;;;;;4980657;28;20237;-82
2021/06/08 07:39:57;;;;;;;1999.90;999.90;;;16.70;99.90;;;;;;4980346;28;20191;-82
2021/06/08 07:42:47;;;;;;;1999.90;999.90;;;16.80;99.90;;;;;;4976259;28;20178;-82
2021/06/08 07:45:17;;;;;;;1999.90;999.90;;;16.80;99.90;;;;;;4973523;28;20195;-82
2021/06/08 07:47:48;;;;;;;1999.90;999.90;;;16.80;99.90;;;;;;4980054;28;20273;-82
2021/06/08 07:50:14;;;;;;;1999.90;999.90;;;16.80;99.90;;;;;;4980634;28;20169;-82
2021/06/08 07:52:40;;;;;;;1999.90;999.90;;;16.80;99.90;;;;;;4979623;28;20213;-82
2021/06/08 07:55:07;;;;;;;1999.90;999.90;;;16.90;99.90;;;;;;4979948;28;20175;-83
2021/06/08 07:57:33;;;;;;;1999.90;999.90;;;17.00;99.90;;;;;;4979043;28;20189;-82
2021/06/08 07:59:59;;;;;;;1999.90;999.90;;;17.20;99.90;;;;;;4978412;28;20185;-82
2021/06/08 08:02:25;;;;;;;1999.90;999.90;;;17.20;99.90;;;;;;4966745;28;20197;-82
2021/06/08 08:04:52;;;;;;;1999.90;999.90;;;17.20;99.90;;;;;;4979108;28;20201;-82
2021/06/08 08:07:23;;;;;;;1999.90;999.90;;;17.30;99.90;;;;;;4979008;28;20202;-82
2021/06/08 08:09:53;;;;;;;1999.90;999.90;;;17.40;99.90;;;;;;4979156;28;20182;-82
2021/06/08 08:12:19;;;;;;;1999.90;999.90;;;17.40;99.90;;;;;;4977890;28;20180;-82
2021/06/08 08:14:47;;;;;;;1999.90;999.90;;;17.40;99.90;;;;;;4978107;28;20183;-82
2021/06/08 08:17:14;;;;;;;1999.90;999.90;;;17.40;99.90;;;;;;4978807;28;20201;-82
2021/06/08 08:19:41;;;;;;;1999.90;999.90;;;17.40;99.90;;;;;;4976750;28;20176;-82
2021/06/08 08:22:07;;;;;;;1999.90;999.90;;;17.40;99.90;;;;;;4978639;28;20175;-82
2021/06/08 08:24:34;;;;;;;1999.90;999.90;;;17.50;99.90;;;;;;4978381;28;20211;-82
2021/06/08 08:27:03;;;;;;;1999.90;999.90;;;17.60;99.90;;;;;;4964343;28;20208;-82
2021/06/08 08:29:29;;;;;;;1999.90;999.90;;;17.70;99.90;;;;;;4977810;28;20183;-82
2021/06/08 08:31:55;;;;;;;1999.90;999.90;;;17.80;99.90;;;;;;4972885;28;20251;-82
2021/06/08 08:34:20;;;;;;;1999.90;999.90;;;17.80;99.90;;;;;;4976333;28;20226;-82
2021/06/08 08:36:46;;;;;;;1999.90;999.90;;;17.90;99.90;;;;;;4977605;28;20204;-82
2021/06/08 08:39:12;;;;;;;1999.90;999.90;;;18.00;99.90;;;;;;4977701;28;20258;-82
2021/06/08 08:41:40;;;;;;;1999.90;999.90;;;18.00;99.90;;;;;;4978001;28;20188;-82
2021/06/08 08:44:07;;;;;;;1999.90;999.90;;;18.00;99.90;;;;;;4962492;28;20306;-82
2021/06/08 08:46:34;;;;;;;1999.90;999.90;;;18.10;99.90;;;;;;4972027;28;20592;-82
2021/06/08 08:48:59;;;;;;;1999.90;999.90;;;18.10;99.90;;;;;;4986792;28;20646;-82
2021/06/08 08:51:27;;;;;;;1999.90;999.90;;;18.20;99.90;;;;;;4976781;28;20187;-83
2021/06/08 08:53:55;;;;;;;1999.90;999.90;;;18.20;99.90;;;;;;4973189;28;20196;-82
2021/06/08 08:56:25;;;;;;;1999.90;999.90;;;18.40;99.90;;;;;;4963496;28;20199;-82
2021/06/08 08:58:51;;;;;;;1999.90;999.90;;;18.50;99.90;;;;;;4984932;28;20179;-82
2021/06/08 09:01:17;;;;;;;1999.90;999.90;;;18.50;99.90;;;;;;4976518;28;20180;-82
2021/06/08 09:03:43;;;;;;;1999.90;999.90;;;;;;;;;;4969245;28;20182;-82
2021/06/08 09:06:12;;;;;;;1999.90;999.90;;;;;;;;;;4965554;28;20214;-82
2021/06/08 09:08:41;;;;;;;1999.90;999.90;;;18.50;99.90;;;;;;4973531;28;20188;-81
2021/06/08 09:11:08;;;;;;;1999.90;999.90;;;18.50;99.90;;;;;;4973549;28;20198;-82
2021/06/08 09:13:33;;;;;;;1999.90;999.90;;;18.60;99.90;;;;;;4974211;28;20287;-82
2021/06/08 09:15:59;;;;;;;1999.90;999.90;;;18.70;99.90;;;;;;4971327;28;20636;-82
2021/06/08 09:18:25;;;;;;;1999.90;999.90;;;18.60;99.90;;;;;;4964058;28;20198;-82
2021/06/08 09:20:52;;;;;;;1999.90;999.90;;;18.60;99.90;;;;;;4980081;28;20631;-82
2021/06/08 09:23:24;;;;;;;1999.90;999.90;;;18.60;99.90;;;;;;4979129;28;20174;-82
2021/06/08 09:25:51;;;;;;;1999.90;999.90;;;18.70;99.90;;;;;;4978807;28;20567;-82
2021/06/08 09:28:31;;;;;;;1999.90;999.90;;;18.70;99.90;;;;;;4978504;28;20182;-82
2021/06/08 09:31:08;;;;;;;1999.90;999.90;;;18.80;99.90;;;;;;4979725;28;20258;-82
2021/06/08 09:33:36;;;;;;;1999.90;999.90;;;18.80;99.90;;;;;;4978358;28;20201;-82
2021/06/08 09:36:12;;;;;;;1999.90;999.90;;;18.90;99.90;;;;;;4978943;28;20206;-82
2021/06/08 09:38:41;;;;;;;1999.90;999.90;;;18.90;99.90;;;;;;4979268;28;20231;-83
2021/06/08 09:41:20;;;;;;;1999.90;999.90;;;18.90;99.90;;;;;;4978044;28;20701;-82
2021/06/08 09:43:58;;;;;;;1999.90;999.90;;;19.00;99.90;;;;;;4977676;28;20214;-82
2021/06/08 09:46:45;;;;;;;1999.90;999.90;;;18.90;99.90;;;;;;4979824;28;20253;-82
2021/06/08 09:49:12;;;;;;;1999.90;999.90;;;19.00;99.90;;;;;;4979532;28;20184;-82
2021/06/08 09:51:55;;;;;;;1999.90;999.90;;;19.00;99.90;;;;;;4979821;28;20237;-82
2021/06/08 09:54:24;;;;;;;1999.90;999.90;;;19.10;99.90;;;;;;4978209;28;20253;-82
2021/06/08 09:56:50;;;;;;;1999.90;999.90;;;19.10;99.90;;;;;;4980199;28;20265;-82
2021/06/08 09:59:16;;;;;;;1999.90;999.90;;;19.10;99.90;;;;;;4977878;28;20637;-82
2021/06/08 10:01:41;;;;;;;1999.90;999.90;;;19.20;99.90;;;;;;4971854;28;20187;-82
2021/06/08 10:04:07;;;;;;;1999.90;999.90;;;19.20;99.90;;;;;;4973895;28;20177;-83
2021/06/08 10:06:41;;;;;;;1999.90;999.90;;;19.10;99.90;;;;;;4980001;28;20567;-82
2021/06/08 10:09:11;;;;;;;1999.90;999.90;;;19.10;99.90;;;;;;4978049;28;20183;-82
2021/06/08 10:11:39;;;;;;;1999.90;999.90;;;19.20;99.90;;;;;;4980377;28;20526;-82
2021/06/08 10:14:09;;;;;;;1999.90;999.90;;;19.20;99.90;;;;;;4981308;28;20230;-82
2021/06/08 10:16:35;;;;;;;1999.90;999.90;;;19.20;99.90;;;;;;4966634;28;20203;-82
2021/06/08 10:19:03;;;;;;;1999.90;999.90;;;19.20;99.90;;;;;;4980161;28;20184;-82
2021/06/08 10:21:36;;;;;;;1999.90;999.90;;;19.20;99.90;;;;;;4979624;28;20176;-82
2021/06/08 10:24:12;;;;;;;1999.90;999.90;;;19.20;99.90;;;;;;4980059;28;20180;-82
2021/06/08 10:26:41;;;;;;;1999.90;999.90;;;19.20;99.90;;;;;;4979441;28;20557;-82
2021/06/08 10:29:10;;;;;;;1999.90;999.90;;;19.20;99.90;;;;;;4980588;28;20552;-82
2021/06/08 10:31:39;;;;;;;1999.90;999.90;;;19.20;99.90;;;;;;4979883;28;20180;-82
2021/06/08 10:34:06;;;;;;;1999.90;999.90;;;19.30;99.90;;;;;;4978959;28;20227;-82
2021/06/08 10:36:34;;;;;;;1999.90;999.90;;;19.30;99.90;;;;;;4980130;28;20240;-82
2021/06/08 10:39:03;;;;;;;1999.90;999.90;;;19.30;99.90;;;;;;4980808;28;20176;-82
2021/06/08 10:41:32;;;;;;;1999.90;999.90;;;19.30;99.90;;;;;;4979121;28;20226;-82
2021/06/08 10:44:00;;;;;;;1999.90;999.90;;;19.30;99.90;;;;;;4975786;28;20176;-82
2021/06/08 10:46:31;;;;;;;1999.90;999.90;;;19.30;99.90;;;;;;4980205;28;20227;-82
2021/06/08 10:48:57;;;;;;;1999.90;999.90;;;19.30;99.90;;;;;;4978032;28;20200;-82
2021/06/08 10:51:23;;;;;;;1999.90;999.90;;;19.20;99.90;;;;;;4980588;28;20209;-82
2021/06/08 10:53:56;;;;;;;1999.90;999.90;;;19.30;99.90;;;;;;4978501;28;20206;-82
2021/06/08 10:56:33;;;;;;;1999.90;999.90;;;19.30;99.90;;;;;;4976030;28;20288;-81
2021/06/08 10:59:05;;;;;;;1999.90;999.90;;;19.20;99.90;;;;;;4978371;28;20258;-82
2021/06/08 11:01:30;;;;;;;1999.90;999.90;;;19.20;99.90;;;;;;4977245;28;20191;-81
2021/06/08 11:03:57;;;;;;;1999.90;999.90;;;19.20;99.90;;;;;;4979043;28;20671;-81
2021/06/08 11:06:47;;;;;;;1999.90;999.90;;;19.30;99.90;;;;;;4977580;28;20215;-82
2021/06/08 11:09:15;;;;;;;1999.90;999.90;;;19.40;99.90;;;;;;4979511;28;20180;-82
2021/06/08 11:11:45;;;;;;;1999.90;999.90;;;19.40;99.90;;;;;;4979352;28;20191;-82
2021/06/08 11:14:43;;;;;;;1999.90;999.90;;;19.40;99.90;;;;;;4979633;28;20219;-82
2021/06/08 11:17:11;;;;;;;1999.90;999.90;;;19.50;99.90;;;;;;4977124;28;20744;-82
2021/06/08 11:19:54;;;;;;;1999.90;999.90;;;19.50;99.90;;;;;;4976118;28;20180;-81
2021/06/08 11:22:32;;;;;;;1999.90;999.90;;;19.40;99.90;;;;;;4978046;28;20180;-82
2021/06/08 11:24:58;;;;;;;1999.90;999.90;;;19.40;99.90;;;;;;4978921;28;20180;-81
2021/06/08 11:27:52;;;;;;;1999.90;999.90;;;19.50;99.90;;;;;;4977535;28;20211;-81
2021/06/08 11:30:25;;;;;;;1999.90;999.90;;;19.50;99.90;;;;;;4978458;28;20186;-82
2021/06/08 11:32:52;;;;;;;1999.90;999.90;;;19.60;99.90;;;;;;4977447;28;20195;-81
2021/06/08 11:35:22;;;;;;;1999.90;999.90;;;19.60;99.90;;;;;;4978282;28;20526;-81
2021/06/08 11:37:48;;;;;;;1999.90;999.90;;;19.70;99.90;;;;;;4976280;28;20199;-82
2021/06/08 11:40:39;;;;;;;1999.90;999.90;;;19.80;99.90;;;;;;4977788;28;20180;-82
2021/06/08 11:43:11;;;;;;;1999.90;999.90;;;19.70;99.90;;;;;;5047493;28;20662;-81
2021/06/08 11:45:39;;;;;;;1999.90;999.90;;;19.70;99.90;;;;;;4978206;28;20194;-81
2021/06/08 11:48:30;;;;;;;1999.90;999.90;;;19.60;99.90;;;;;;4976632;28;20188;-81
2021/06/08 11:50:57;;;;;;;1999.90;999.90;;;19.60;99.90;;;;;;4978421;28;20271;-81
2021/06/08 11:53:22;;;;;;;1999.90;999.90;;;19.70;99.90;;;;;;4976469;28;20258;-81
2021/06/08 11:56:11;;;;;;;1999.90;999.90;;;19.60;99.90;;;;;;4964466;28;20199;-82
2021/06/08 11:58:39;;;;;;;1999.90;999.90;;;19.60;99.90;;;;;;4977696;28;20179;-81
2021/06/08 12:01:07;;;;;;;1999.90;999.90;;;19.60;99.90;;;;;;4962993;28;20208;-81
2021/06/08 12:03:35;;;;;;;1999.90;999.90;;;19.60;99.90;;;;;;4977143;28;20274;-81
2021/06/08 12:06:02;;;;;;;1999.90;999.90;;;19.70;99.90;;;;;;4977289;28;20215;-82
2021/06/08 12:08:31;;;;;;;1999.90;999.90;;;19.70;99.90;;;;;;4977295;28;20258;-81